sensor_id;sensor_type;location;lat;lon;timestamp;P1;durP1;ratioP1;P2;durP2;ratioP2
42768;SDS011;28423;60.010;30.406;2022-09-30T00:00:27;13.63;;;8.10;;
42768;SDS011;28423;60.010;30.406;2022-09-30T00:02:53;13.63;;;8.45;;
42768;SDS011;28423;60.010;30.406;2022-09-30T00:05:19;16.88;;;8.98;;
42768;SDS011;28423;60.010;30.406;2022-09-30T00:07:44;14.75;;;8.68;;
42768;SDS011;28423;60.010;30.406;2022-09-30T00:10:10;15.93;;;8.73;;
42768;SDS011;28423;60.010;30.406;2022-09-30T00:12:37;16.35;;;8.88;;
42768;SDS011;28423;60.010;30.406;2022-09-30T00:15:04;14.77;;;8.40;;
42768;SDS011;28423;60.010;30.406;2022-09-30T00:17:30;19.48;;;9.20;;
42768;SDS011;28423;60.010;30.406;2022-09-30T00:19:56;16.40;;;8.65;;
42768;SDS011;28423;60.010;30.406;2022-09-30T00:22:21;14.80;;;8.65;;
42768;SDS011;28423;60.010;30.406;2022-09-30T00:24:47;16.48;;;8.73;;
42768;SDS011;28423;60.010;30.406;2022-09-30T00:27:12;16.98;;;8.73;;
42768;SDS011;28423;60.010;30.406;2022-09-30T00:29:42;14.60;;;7.90;;
42768;SDS011;28423;60.010;30.406;2022-09-30T00:32:09;12.82;;;7.80;;
42768;SDS011;28423;60.010;30.406;2022-09-30T00:34:34;16.58;;;8.75;;
42768;SDS011;28423;60.010;30.406;2022-09-30T00:37:00;15.38;;;8.15;;
42768;SDS011;28423;60.010;30.406;2022-09-30T00:39:27;14.45;;;8.80;;
42768;SDS011;28423;60.010;30.406;2022-09-30T00:41:58;14.65;;;8.30;;
42768;SDS011;28423;60.010;30.406;2022-09-30T00:50:11;19.40;;;8.82;;
42768;SDS011;28423;60.010;30.406;2022-09-30T00:56:10;13.23;;;7.93;;
42768;SDS011;28423;60.010;30.406;2022-09-30T00:58:37;15.98;;;10.05;;
42768;SDS011;28423;60.010;30.406;2022-09-30T01:01:05;17.65;;;8.85;;
42768;SDS011;28423;60.010;30.406;2022-09-30T01:03:35;14.25;;;8.25;;
42768;SDS011;28423;60.010;30.406;2022-09-30T01:06:34;12.45;;;7.72;;
42768;SDS011;28423;60.010;30.406;2022-09-30T01:09:00;14.15;;;8.27;;
42768;SDS011;28423;60.010;30.406;2022-09-30T01:11:26;13.45;;;8.60;;
42768;SDS011;28423;60.010;30.406;2022-09-30T01:13:53;11.85;;;6.90;;
42768;SDS011;28423;60.010;30.406;2022-09-30T01:32:05;17.13;;;7.22;;
42768;SDS011;28423;60.010;30.406;2022-09-30T01:34:52;15.88;;;8.15;;
42768;SDS011;28423;60.010;30.406;2022-09-30T01:40:24;15.00;;;7.53;;
42768;SDS011;28423;60.010;30.406;2022-09-30T01:48:12;15.68;;;9.10;;
42768;SDS011;28423;60.010;30.406;2022-09-30T01:50:57;13.18;;;8.02;;
42768;SDS011;28423;60.010;30.406;2022-09-30T01:53:46;11.90;;;7.25;;
42768;SDS011;28423;60.010;30.406;2022-09-30T01:56:16;12.15;;;7.20;;
42768;SDS011;28423;60.010;30.406;2022-09-30T01:58:59;19.08;;;8.70;;
42768;SDS011;28423;60.010;30.406;2022-09-30T02:01:27;13.05;;;7.57;;
42768;SDS011;28423;60.010;30.406;2022-09-30T02:03:58;11.65;;;7.35;;
42768;SDS011;28423;60.010;30.406;2022-09-30T02:06:44;12.60;;;7.78;;
42768;SDS011;28423;60.010;30.406;2022-09-30T02:11:38;10.43;;;7.38;;
42768;SDS011;28423;60.010;30.406;2022-09-30T02:16:37;12.57;;;7.30;;
42768;SDS011;28423;60.010;30.406;2022-09-30T02:19:08;11.48;;;7.20;;
42768;SDS011;28423;60.010;30.406;2022-09-30T02:21:39;10.25;;;7.18;;
42768;SDS011;28423;60.010;30.406;2022-09-30T02:24:07;13.65;;;8.05;;
42768;SDS011;28423;60.010;30.406;2022-09-30T02:26:39;10.75;;;7.07;;
42768;SDS011;28423;60.010;30.406;2022-09-30T02:29:07;11.45;;;7.47;;
42768;SDS011;28423;60.010;30.406;2022-09-30T02:31:38;13.55;;;7.05;;
42768;SDS011;28423;60.010;30.406;2022-09-30T02:37:04;9.93;;;6.78;;
42768;SDS011;28423;60.010;30.406;2022-09-30T02:39:36;10.48;;;6.88;;
42768;SDS011;28423;60.010;30.406;2022-09-30T02:42:06;8.80;;;5.90;;
42768;SDS011;28423;60.010;30.406;2022-09-30T02:44:38;10.57;;;6.70;;
42768;SDS011;28423;60.010;30.406;2022-09-30T02:52:28;11.07;;;6.65;;
42768;SDS011;28423;60.010;30.406;2022-09-30T02:55:17;11.73;;;6.80;;
42768;SDS011;28423;60.010;30.406;2022-09-30T03:00:24;12.48;;;7.40;;
42768;SDS011;28423;60.010;30.406;2022-09-30T03:02:52;13.02;;;7.25;;
42768;SDS011;28423;60.010;30.406;2022-09-30T03:05:20;11.07;;;6.45;;
42768;SDS011;28423;60.010;30.406;2022-09-30T03:07:46;13.55;;;7.00;;
42768;SDS011;28423;60.010;30.406;2022-09-30T03:10:12;10.07;;;6.82;;
42768;SDS011;28423;60.010;30.406;2022-09-30T03:12:48;10.80;;;6.82;;
42768;SDS011;28423;60.010;30.406;2022-09-30T03:15:29;12.65;;;5.90;;
42768;SDS011;28423;60.010;30.406;2022-09-30T03:18:18;13.55;;;6.32;;
42768;SDS011;28423;60.010;30.406;2022-09-30T03:20:56;9.85;;;6.50;;
42768;SDS011;28423;60.010;30.406;2022-09-30T03:34:00;9.27;;;6.15;;
42768;SDS011;28423;60.010;30.406;2022-09-30T03:36:36;9.52;;;6.63;;
42768;SDS011;28423;60.010;30.406;2022-09-30T03:40:06;9.60;;;5.93;;
42768;SDS011;28423;60.010;30.406;2022-09-30T03:42:14;13.23;;;6.53;;
42768;SDS011;28423;60.010;30.406;2022-09-30T03:44:53;11.20;;;6.45;;
42768;SDS011;28423;60.010;30.406;2022-09-30T03:47:21;9.27;;;6.32;;
42768;SDS011;28423;60.010;30.406;2022-09-30T03:49:50;12.52;;;6.65;;
42768;SDS011;28423;60.010;30.406;2022-09-30T03:52:20;10.02;;;6.22;;
42768;SDS011;28423;60.010;30.406;2022-09-30T03:54:50;12.40;;;6.90;;
42768;SDS011;28423;60.010;30.406;2022-09-30T03:57:20;11.25;;;7.15;;
42768;SDS011;28423;60.010;30.406;2022-09-30T03:59:46;12.05;;;7.38;;
42768;SDS011;28423;60.010;30.406;2022-09-30T04:02:15;13.80;;;7.28;;
42768;SDS011;28423;60.010;30.406;2022-09-30T04:04:41;13.20;;;6.90;;
42768;SDS011;28423;60.010;30.406;2022-09-30T04:07:10;9.57;;;6.35;;
42768;SDS011;28423;60.010;30.406;2022-09-30T04:09:38;11.45;;;7.72;;
42768;SDS011;28423;60.010;30.406;2022-09-30T04:12:04;11.30;;;7.07;;
42768;SDS011;28423;60.010;30.406;2022-09-30T04:14:31;10.13;;;6.38;;
42768;SDS011;28423;60.010;30.406;2022-09-30T04:16:57;8.10;;;5.82;;
42768;SDS011;28423;60.010;30.406;2022-09-30T04:19:23;13.05;;;6.85;;
42768;SDS011;28423;60.010;30.406;2022-09-30T04:21:52;11.85;;;6.57;;
42768;SDS011;28423;60.010;30.406;2022-09-30T04:24:19;10.68;;;6.63;;
42768;SDS011;28423;60.010;30.406;2022-09-30T04:26:45;10.38;;;5.90;;
42768;SDS011;28423;60.010;30.406;2022-09-30T04:29:11;10.50;;;6.50;;
42768;SDS011;28423;60.010;30.406;2022-09-30T04:31:36;11.30;;;5.88;;
42768;SDS011;28423;60.010;30.406;2022-09-30T04:34:02;8.20;;;6.00;;
42768;SDS011;28423;60.010;30.406;2022-09-30T04:36:28;9.25;;;6.50;;
42768;SDS011;28423;60.010;30.406;2022-09-30T04:38:54;9.98;;;5.90;;
42768;SDS011;28423;60.010;30.406;2022-09-30T04:41:19;9.35;;;5.93;;
42768;SDS011;28423;60.010;30.406;2022-09-30T04:43:45;9.15;;;6.63;;
42768;SDS011;28423;60.010;30.406;2022-09-30T04:46:12;8.15;;;5.20;;
42768;SDS011;28423;60.010;30.406;2022-09-30T04:48:44;8.00;;;5.38;;
42768;SDS011;28423;60.010;30.406;2022-09-30T04:51:11;8.93;;;4.97;;
42768;SDS011;28423;60.010;30.406;2022-09-30T04:53:40;10.27;;;5.78;;
42768;SDS011;28423;60.010;30.406;2022-09-30T04:56:06;10.25;;;5.95;;
42768;SDS011;28423;60.010;30.406;2022-09-30T04:58:32;9.68;;;5.18;;
42768;SDS011;28423;60.010;30.406;2022-09-30T05:00:59;19.27;;;5.15;;
42768;SDS011;28423;60.010;30.406;2022-09-30T05:03:27;9.88;;;5.78;;
42768;SDS011;28423;60.010;30.406;2022-09-30T05:05:53;9.02;;;5.30;;
42768;SDS011;28423;60.010;30.406;2022-09-30T05:08:19;9.38;;;5.05;;
42768;SDS011;28423;60.010;30.406;2022-09-30T05:10:52;7.13;;;4.93;;
42768;SDS011;28423;60.010;30.406;2022-09-30T05:13:19;8.95;;;5.40;;
42768;SDS011;28423;60.010;30.406;2022-09-30T05:15:47;10.00;;;5.65;;
42768;SDS011;28423;60.010;30.406;2022-09-30T05:18:13;9.13;;;5.13;;
42768;SDS011;28423;60.010;30.406;2022-09-30T05:20:38;8.25;;;5.63;;
42768;SDS011;28423;60.010;30.406;2022-09-30T05:23:04;7.93;;;5.97;;
42768;SDS011;28423;60.010;30.406;2022-09-30T05:25:30;7.35;;;5.40;;
42768;SDS011;28423;60.010;30.406;2022-09-30T05:27:56;8.98;;;6.18;;
42768;SDS011;28423;60.010;30.406;2022-09-30T05:30:21;9.35;;;6.07;;
42768;SDS011;28423;60.010;30.406;2022-09-30T05:32:47;8.52;;;4.72;;
42768;SDS011;28423;60.010;30.406;2022-09-30T05:35:12;10.13;;;5.78;;
42768;SDS011;28423;60.010;30.406;2022-09-30T05:37:38;9.57;;;5.63;;
42768;SDS011;28423;60.010;30.406;2022-09-30T05:40:05;7.82;;;4.90;;
42768;SDS011;28423;60.010;30.406;2022-09-30T05:42:31;8.75;;;5.50;;
42768;SDS011;28423;60.010;30.406;2022-09-30T05:45:00;8.57;;;6.60;;
42768;SDS011;28423;60.010;30.406;2022-09-30T05:47:26;8.55;;;5.47;;
42768;SDS011;28423;60.010;30.406;2022-09-30T05:49:51;10.48;;;5.97;;
42768;SDS011;28423;60.010;30.406;2022-09-30T05:52:17;10.15;;;5.72;;
42768;SDS011;28423;60.010;30.406;2022-09-30T05:54:43;8.85;;;5.70;;
42768;SDS011;28423;60.010;30.406;2022-09-30T05:57:09;11.63;;;5.78;;
42768;SDS011;28423;60.010;30.406;2022-09-30T05:59:35;8.35;;;5.70;;
42768;SDS011;28423;60.010;30.406;2022-09-30T06:02:02;13.70;;;5.20;;
42768;SDS011;28423;60.010;30.406;2022-09-30T06:04:28;8.23;;;4.93;;
42768;SDS011;28423;60.010;30.406;2022-09-30T06:06:54;8.73;;;5.43;;
42768;SDS011;28423;60.010;30.406;2022-09-30T06:09:19;7.95;;;5.38;;
42768;SDS011;28423;60.010;30.406;2022-09-30T06:11:45;9.70;;;5.53;;
42768;SDS011;28423;60.010;30.406;2022-09-30T06:14:10;8.20;;;5.32;;
42768;SDS011;28423;60.010;30.406;2022-09-30T06:16:36;7.53;;;4.70;;
42768;SDS011;28423;60.010;30.406;2022-09-30T06:19:02;8.35;;;5.57;;
42768;SDS011;28423;60.010;30.406;2022-09-30T06:21:27;10.07;;;5.22;;
42768;SDS011;28423;60.010;30.406;2022-09-30T06:23:53;9.13;;;5.75;;
42768;SDS011;28423;60.010;30.406;2022-09-30T06:26:19;8.20;;;5.43;;
42768;SDS011;28423;60.010;30.406;2022-09-30T06:28:44;7.82;;;5.32;;
42768;SDS011;28423;60.010;30.406;2022-09-30T06:31:10;12.23;;;5.70;;
42768;SDS011;28423;60.010;30.406;2022-09-30T06:33:36;9.70;;;5.60;;
42768;SDS011;28423;60.010;30.406;2022-09-30T06:36:02;7.63;;;5.10;;
42768;SDS011;28423;60.010;30.406;2022-09-30T06:38:29;8.65;;;5.43;;
42768;SDS011;28423;60.010;30.406;2022-09-30T06:40:57;11.35;;;6.30;;
42768;SDS011;28423;60.010;30.406;2022-09-30T06:43:23;7.03;;;4.72;;
42768;SDS011;28423;60.010;30.406;2022-09-30T06:45:49;8.98;;;5.68;;
42768;SDS011;28423;60.010;30.406;2022-09-30T06:48:15;9.32;;;5.80;;
42768;SDS011;28423;60.010;30.406;2022-09-30T06:50:41;10.63;;;5.65;;
42768;SDS011;28423;60.010;30.406;2022-09-30T06:53:07;7.13;;;5.30;;
42768;SDS011;28423;60.010;30.406;2022-09-30T06:55:35;9.02;;;5.43;;
42768;SDS011;28423;60.010;30.406;2022-09-30T06:58:03;7.95;;;5.25;;
42768;SDS011;28423;60.010;30.406;2022-09-30T07:00:32;7.13;;;4.93;;
42768;SDS011;28423;60.010;30.406;2022-09-30T07:02:58;8.20;;;4.88;;
42768;SDS011;28423;60.010;30.406;2022-09-30T07:05:24;8.45;;;4.82;;
42768;SDS011;28423;60.010;30.406;2022-09-30T07:07:51;6.95;;;4.60;;
42768;SDS011;28423;60.010;30.406;2022-09-30T07:10:17;9.40;;;5.65;;
42768;SDS011;28423;60.010;30.406;2022-09-30T07:12:43;8.02;;;4.80;;
42768;SDS011;28423;60.010;30.406;2022-09-30T07:15:09;9.02;;;4.78;;
42768;SDS011;28423;60.010;30.406;2022-09-30T07:17:35;9.40;;;5.07;;
42768;SDS011;28423;60.010;30.406;2022-09-30T07:20:00;8.90;;;4.75;;
42768;SDS011;28423;60.010;30.406;2022-09-30T07:22:26;9.57;;;5.43;;
42768;SDS011;28423;60.010;30.406;2022-09-30T07:24:54;9.10;;;4.43;;
42768;SDS011;28423;60.010;30.406;2022-09-30T07:27:24;10.55;;;5.00;;
42768;SDS011;28423;60.010;30.406;2022-09-30T07:29:50;7.63;;;5.13;;
42768;SDS011;28423;60.010;30.406;2022-09-30T07:32:16;7.03;;;4.63;;
42768;SDS011;28423;60.010;30.406;2022-09-30T07:34:44;6.75;;;4.97;;
42768;SDS011;28423;60.010;30.406;2022-09-30T07:37:11;6.50;;;4.45;;
42768;SDS011;28423;60.010;30.406;2022-09-30T07:39:39;6.60;;;5.10;;
42768;SDS011;28423;60.010;30.406;2022-09-30T07:42:06;10.25;;;5.30;;
42768;SDS011;28423;60.010;30.406;2022-09-30T07:44:31;7.35;;;4.65;;
42768;SDS011;28423;60.010;30.406;2022-09-30T07:46:57;8.15;;;5.10;;
42768;SDS011;28423;60.010;30.406;2022-09-30T07:49:23;7.53;;;4.82;;
42768;SDS011;28423;60.010;30.406;2022-09-30T07:51:50;8.15;;;5.55;;
42768;SDS011;28423;60.010;30.406;2022-09-30T07:54:21;6.70;;;4.95;;
42768;SDS011;28423;60.010;30.406;2022-09-30T07:56:48;11.40;;;5.60;;
42768;SDS011;28423;60.010;30.406;2022-09-30T07:59:15;7.65;;;4.97;;
42768;SDS011;28423;60.010;30.406;2022-09-30T08:01:41;7.72;;;4.53;;
42768;SDS011;28423;60.010;30.406;2022-09-30T08:04:07;8.93;;;5.45;;
42768;SDS011;28423;60.010;30.406;2022-09-30T08:06:38;9.85;;;4.70;;
42768;SDS011;28423;60.010;30.406;2022-09-30T08:09:05;6.72;;;4.60;;
42768;SDS011;28423;60.010;30.406;2022-09-30T08:11:34;9.07;;;4.53;;
42768;SDS011;28423;60.010;30.406;2022-09-30T08:14:01;10.02;;;4.72;;
42768;SDS011;28423;60.010;30.406;2022-09-30T08:16:27;8.80;;;4.60;;
42768;SDS011;28423;60.010;30.406;2022-09-30T08:18:53;6.25;;;4.50;;
42768;SDS011;28423;60.010;30.406;2022-09-30T08:21:23;7.18;;;4.25;;
42768;SDS011;28423;60.010;30.406;2022-09-30T08:23:49;6.72;;;4.35;;
42768;SDS011;28423;60.010;30.406;2022-09-30T08:26:15;5.47;;;4.00;;
42768;SDS011;28423;60.010;30.406;2022-09-30T08:28:44;6.55;;;4.20;;
42768;SDS011;28423;60.010;30.406;2022-09-30T08:31:17;7.38;;;4.75;;
42768;SDS011;28423;60.010;30.406;2022-09-30T08:33:47;8.35;;;5.07;;
42768;SDS011;28423;60.010;30.406;2022-09-30T08:36:17;8.60;;;3.97;;
42768;SDS011;28423;60.010;30.406;2022-09-30T08:38:47;7.20;;;4.45;;
42768;SDS011;28423;60.010;30.406;2022-09-30T08:52:12;9.63;;;4.30;;
42768;SDS011;28423;60.010;30.406;2022-09-30T08:54:41;8.68;;;4.45;;
42768;SDS011;28423;60.010;30.406;2022-09-30T08:57:12;11.82;;;4.35;;
42768;SDS011;28423;60.010;30.406;2022-09-30T08:59:39;8.82;;;4.10;;
42768;SDS011;28423;60.010;30.406;2022-09-30T09:02:16;7.03;;;4.00;;
42768;SDS011;28423;60.010;30.406;2022-09-30T09:04:46;6.80;;;4.03;;
42768;SDS011;28423;60.010;30.406;2022-09-30T09:12:42;4.93;;;3.90;;
42768;SDS011;28423;60.010;30.406;2022-09-30T09:21:07;6.50;;;3.88;;
42768;SDS011;28423;60.010;30.406;2022-09-30T09:23:50;8.75;;;3.67;;
42768;SDS011;28423;60.010;30.406;2022-09-30T09:26:17;11.80;;;3.55;;
42768;SDS011;28423;60.010;30.406;2022-09-30T09:31:45;9.00;;;3.50;;
42768;SDS011;28423;60.010;30.406;2022-09-30T09:34:12;6.78;;;3.70;;
42768;SDS011;28423;60.010;30.406;2022-09-30T09:37:24;6.82;;;3.85;;
42768;SDS011;28423;60.010;30.406;2022-09-30T09:45:00;6.97;;;4.00;;
42768;SDS011;28423;60.010;30.406;2022-09-30T09:47:28;7.07;;;4.25;;
42768;SDS011;28423;60.010;30.406;2022-09-30T09:49:58;7.13;;;3.17;;
42768;SDS011;28423;60.010;30.406;2022-09-30T09:54:56;4.07;;;2.45;;
42768;SDS011;28423;60.010;30.406;2022-09-30T09:57:23;7.50;;;3.20;;
42768;SDS011;28423;60.010;30.406;2022-09-30T10:00:03;6.05;;;3.15;;
42768;SDS011;28423;60.010;30.406;2022-09-30T10:03:02;6.40;;;2.53;;
42768;SDS011;28423;60.010;30.406;2022-09-30T10:05:40;4.32;;;2.40;;
42768;SDS011;28423;60.010;30.406;2022-09-30T10:08:07;5.97;;;2.50;;
42768;SDS011;28423;60.010;30.406;2022-09-30T10:10:45;6.90;;;2.85;;
42768;SDS011;28423;60.010;30.406;2022-09-30T10:13:17;8.70;;;3.30;;
42768;SDS011;28423;60.010;30.406;2022-09-30T10:15:44;6.03;;;3.40;;
42768;SDS011;28423;60.010;30.406;2022-09-30T10:18:22;5.32;;;3.33;;
42768;SDS011;28423;60.010;30.406;2022-09-30T10:20:51;5.13;;;2.50;;
42768;SDS011;28423;60.010;30.406;2022-09-30T10:23:26;8.57;;;3.40;;
42768;SDS011;28423;60.010;30.406;2022-09-30T10:25:58;4.13;;;2.83;;
42768;SDS011;28423;60.010;30.406;2022-09-30T10:28:25;4.70;;;2.67;;
42768;SDS011;28423;60.010;30.406;2022-09-30T10:30:56;7.85;;;3.55;;
42768;SDS011;28423;60.010;30.406;2022-09-30T10:33:33;7.00;;;3.08;;
42768;SDS011;28423;60.010;30.406;2022-09-30T10:36:08;7.55;;;3.08;;
42768;SDS011;28423;60.010;30.406;2022-09-30T10:38:43;8.18;;;3.15;;
42768;SDS011;28423;60.010;30.406;2022-09-30T10:41:11;9.82;;;3.85;;
42768;SDS011;28423;60.010;30.406;2022-09-30T10:43:43;5.50;;;2.97;;
42768;SDS011;28423;60.010;30.406;2022-09-30T10:46:09;10.63;;;3.90;;
42768;SDS011;28423;60.010;30.406;2022-09-30T10:48:35;6.88;;;3.65;;
42768;SDS011;28423;60.010;30.406;2022-09-30T10:51:03;6.55;;;3.55;;
42768;SDS011;28423;60.010;30.406;2022-09-30T10:53:31;4.22;;;2.90;;
42768;SDS011;28423;60.010;30.406;2022-09-30T10:55:58;5.22;;;3.00;;
42768;SDS011;28423;60.010;30.406;2022-09-30T10:58:29;5.55;;;3.63;;
42768;SDS011;28423;60.010;30.406;2022-09-30T11:01:16;5.45;;;3.22;;
42768;SDS011;28423;60.010;30.406;2022-09-30T11:06:16;16.42;;;6.10;;
42768;SDS011;28423;60.010;30.406;2022-09-30T11:08:50;7.95;;;5.20;;
42768;SDS011;28423;60.010;30.406;2022-09-30T11:11:23;12.48;;;7.18;;
42768;SDS011;28423;60.010;30.406;2022-09-30T11:14:03;8.68;;;3.90;;
42768;SDS011;28423;60.010;30.406;2022-09-30T11:19:29;8.43;;;4.47;;
42768;SDS011;28423;60.010;30.406;2022-09-30T11:24:47;9.82;;;4.00;;
42768;SDS011;28423;60.010;30.406;2022-09-30T11:30:02;7.18;;;3.58;;
42768;SDS011;28423;60.010;30.406;2022-09-30T11:55:46;6.22;;;3.20;;
42768;SDS011;28423;60.010;30.406;2022-09-30T11:58:30;6.57;;;3.47;;
42768;SDS011;28423;60.010;30.406;2022-09-30T12:01:08;6.95;;;3.22;;
42768;SDS011;28423;60.010;30.406;2022-09-30T12:03:39;5.30;;;3.83;;
42768;SDS011;28423;60.010;30.406;2022-09-30T12:06:13;5.25;;;3.22;;
42768;SDS011;28423;60.010;30.406;2022-09-30T12:08:47;6.15;;;4.22;;
42768;SDS011;28423;60.010;30.406;2022-09-30T12:11:28;9.70;;;3.80;;
42768;SDS011;28423;60.010;30.406;2022-09-30T12:14:02;5.30;;;3.25;;
42768;SDS011;28423;60.010;30.406;2022-09-30T12:16:33;7.25;;;3.30;;
42768;SDS011;28423;60.010;30.406;2022-09-30T12:19:13;6.47;;;3.78;;
42768;SDS011;28423;60.010;30.406;2022-09-30T12:21:43;9.00;;;3.90;;
42768;SDS011;28423;60.010;30.406;2022-09-30T12:24:13;7.95;;;4.30;;
42768;SDS011;28423;60.010;30.406;2022-09-30T12:26:43;7.97;;;3.25;;
42768;SDS011;28423;60.010;30.406;2022-09-30T12:29:16;8.57;;;3.40;;
42768;SDS011;28423;60.010;30.406;2022-09-30T12:40:49;11.50;;;4.38;;
42768;SDS011;28423;60.010;30.406;2022-09-30T12:43:39;4.95;;;3.47;;
42768;SDS011;28423;60.010;30.406;2022-09-30T12:46:14;6.47;;;3.88;;
42768;SDS011;28423;60.010;30.406;2022-09-30T12:48:49;6.57;;;4.30;;
42768;SDS011;28423;60.010;30.406;2022-09-30T12:53:54;14.25;;;5.65;;
42768;SDS011;28423;60.010;30.406;2022-09-30T12:56:22;9.13;;;4.82;;
42768;SDS011;28423;60.010;30.406;2022-09-30T12:58:51;8.20;;;5.07;;
42768;SDS011;28423;60.010;30.406;2022-09-30T13:01:18;8.52;;;4.20;;
42768;SDS011;28423;60.010;30.406;2022-09-30T13:03:48;9.65;;;4.80;;
42768;SDS011;28423;60.010;30.406;2022-09-30T13:06:16;7.03;;;3.90;;
42768;SDS011;28423;60.010;30.406;2022-09-30T13:09:16;6.85;;;3.63;;
42768;SDS011;28423;60.010;30.406;2022-09-30T13:11:33;6.22;;;3.13;;
42768;SDS011;28423;60.010;30.406;2022-09-30T13:16:57;6.47;;;2.80;;
42768;SDS011;28423;60.010;30.406;2022-09-30T13:19:36;5.85;;;2.60;;
42768;SDS011;28423;60.010;30.406;2022-09-30T13:32:44;5.13;;;2.45;;
42768;SDS011;28423;60.010;30.406;2022-09-30T13:41:24;5.22;;;2.92;;
42768;SDS011;28423;60.010;30.406;2022-09-30T13:46:12;5.07;;;2.10;;
42768;SDS011;28423;60.010;30.406;2022-09-30T13:48:50;5.57;;;2.17;;
42768;SDS011;28423;60.010;30.406;2022-09-30T13:51:21;5.20;;;2.58;;
42768;SDS011;28423;60.010;30.406;2022-09-30T13:53:50;4.60;;;1.98;;
42768;SDS011;28423;60.010;30.406;2022-09-30T13:56:18;4.03;;;2.17;;
42768;SDS011;28423;60.010;30.406;2022-09-30T13:58:53;6.18;;;2.95;;
42768;SDS011;28423;60.010;30.406;2022-09-30T14:23:59;10.45;;;4.95;;
42768;SDS011;28423;60.010;30.406;2022-09-30T14:26:53;9.38;;;4.45;;
42768;SDS011;28423;60.010;30.406;2022-09-30T14:31:57;9.63;;;3.83;;
42768;SDS011;28423;60.010;30.406;2022-09-30T14:34:23;8.13;;;4.32;;
